Flight Track Log - Related Links

Times and Time Zones

All times are in EDT time to prevent confusion due to time zone crossing. See the LBQ652 flight status page for this flight to view local times or setup timezone preferences in your user account.

Time Position Orientation Groundspeed Altitude Reporting Facility
EDT Latitude Longitude Course Direction KTS MPH feet Rate Location/Type
Sat 01:40:43 AM 39.1333 -84.4000 360° North 162 186 2,000  Level Cincinnati TRACON
Sat 01:41:43 AM 39.1833 -84.3833 14° North 244 281 3,600 1,701 Climbing Cincinnati TRACON
Sat 01:42:50 AM 39.2575 -84.3603 14° North 242 278 5,600 1,937 Climbing Indianapolis Center
Sat 01:43:50 AM 39.3306 -84.3417 11° North 259 298 7,700 1,900 Climbing Indianapolis Center
Sat 01:44:50 AM 39.4050 -84.3222 11° North 267 307 9,400 1,550 Climbing Indianapolis Center
Sat 01:45:50 AM 39.4808 -84.3017 12° North 273 314 10,800 1,438 Climbing Indianapolis Center
Sat 01:46:51 AM 39.5617 -84.2800 12° North 289 333 12,300 1,537 Climbing Indianapolis Center
Sat 01:47:51 AM 39.6419 -84.2600 11° North 292 336 13,900 1,400 Climbing Indianapolis Center
Sat 01:48:51 AM 39.7219 -84.2383 12° North 289 333 15,100 1,200 Climbing Indianapolis Center
Sat 01:49:51 AM 39.8056 -84.2158 12° North 299 344 16,300 1,190 Climbing Indianapolis Center
Sat 01:50:52 AM 39.8883 -84.1936 12° North 300 345 17,500 992 Climbing Indianapolis Center
Sat 01:51:52 AM 39.9728 -84.1708 12° North 305 351 18,300 800 Climbing Indianapolis Center
Sat 01:52:52 AM 40.0461 -84.1525 11° North 315 362 19,100 950 Climbing Indianapolis Center
Sat 01:53:52 AM 40.1328 -84.1289 12° North 314 361 20,200 1,100 Climbing Indianapolis Center
Sat 01:54:52 AM 40.2206 -84.1039 12° North 318 366 21,300 1,140 Climbing Indianapolis Center
Sat 01:55:53 AM 40.3064 -84.0817 11° North 311 358 22,500 1,091 Climbing Indianapolis Center
Sat 01:56:53 AM 40.3894 -84.0594 12° North 303 349 23,500 950 Climbing Indianapolis Center
Sat 01:57:53 AM 40.4744 -84.0369 11° North 305 351 24,400 950 Climbing Indianapolis Center
Sat 01:58:53 AM 40.5572 -84.0136 12° North 302 348 25,400 1,041 Climbing Indianapolis Center
Sat 01:59:54 AM 40.6400 -83.9908 12° North 302 348 26,500 793 Climbing Indianapolis Center
Sat 02:00:54 AM 40.7222 -83.9686 12° North 298 343 27,000 250 Climbing Indianapolis Center
Sat 02:01:54 AM 40.8103 -83.9444 12° North 318 366 27,000  Level Indianapolis Center
Sat 02:02:54 AM 40.9000 -83.9197 12° North 327 376 27,000  Level Indianapolis Center
Sat 02:03:54 AM 40.9917 -83.8942 12° North 331 381 27,000  Level Indianapolis Center
Sat 02:04:55 AM 41.0750 -83.8703 12° North 332 382 27,000  Level Indianapolis Center
Sat 02:05:31 AM 41.1314 -83.8556 11° North 328 377 27,000  Level Cleveland Center
Sat 02:06:31 AM 41.2239 -83.8300 12° North 328 377 27,000  Level Cleveland Center
Sat 02:07:31 AM 41.3142 -83.8067 11° North 328 377 27,000  Level Cleveland Center
Sat 02:08:31 AM 41.4047 -83.7781 13° North 333 383 27,000 -250 Level Cleveland Center
Sat 02:09:31 AM 41.4969 -83.7547 11° North 333 383 26,500 -759 Descending Cleveland Center
Sat 02:09:58 AM 41.5517 -83.7408 11° North 351 404 25,900 -1,000 Descending Cleveland Center
Sat 02:10:31 AM 41.5956 -83.7292 11° North 346 398 25,500 -1,000 Descending Cleveland Center
Sat 02:11:04 AM 41.6608 -83.7072 14° North 362 417 24,800 -1,000 Descending Cleveland Center
Sat 02:11:31 AM 41.6925 -83.6978 13° North 352 405 24,500 -1,475 Descending Cleveland Center
Sat 02:12:05 AM 41.7575 -83.6842 North 349 402 23,300 -2,100 Descending Cleveland Center
Sat 02:12:31 AM 41.7892 -83.6717 16° North 352 405 22,400 -3,000 Descending Cleveland Center
Sat 02:13:05 AM 41.8542 -83.6553 11° North 348 400 20,300 -2,900 Descending Cleveland Center
Sat 02:13:31 AM 41.8814 -83.6456 15° North 347 399 19,500 -2,656 Descending Cleveland Center
Sat 02:14:06 AM 41.9464 -83.6319 North 340 391 17,600 -2,800 Descending Cleveland Center
Sat 02:14:31 AM 41.9719 -83.6192 20° North 342 394 16,700 -2,656 Descending Cleveland Center
Sat 02:15:07 AM 42.0369 -83.6028 11° North 330 380 14,900 -2,700 Descending Cleveland Center
Sat 02:15:31 AM 42.0622 -83.5928 16° North 336 387 14,000 -2,000 Descending Cleveland Center
Sat 02:16:07 AM 42.1250 -83.5789 North 314 361 12,900 -2,100 Descending Cleveland Center
Sat 02:16:31 AM 42.1461 -83.5714 15° North 324 373 11,900 -2,951 Descending Cleveland Center
Sat 02:17:08 AM 42.2069 -83.5547 11° North 295 339 9,900 -3,100 Descending Cleveland Center
Sat 02:17:31 AM 42.2281 -83.5472 15° North 303 349 8,800 -2,800 Descending Cleveland Center
Sat 02:18:08 AM 42.2806 -83.5328 12° North 270 311 7,100 -2,200 Descending Cleveland Center
Sat 02:18:31 AM 42.2953 -83.5278 14° North 283 326 6,600 -2,262 Descending Cleveland Center
Sat 02:19:09 AM 42.3583 -83.5111 11° North 258 297 4,800 -2,500 Descending Cleveland Center
Sat 02:19:31 AM 42.3794 -83.5036 15° North 258 297 4,100 -1,672 Descending Cleveland Center
Sat 02:20:10 AM 42.4297 -83.4892 12° North 261 300 3,100 -606 Descending Cleveland Center
Sat 02:21:10 AM 42.4908 -83.4639 17° North 228 262 3,100  Level Cleveland Center
Sat 02:22:11 AM 42.5481 -83.4269 25° Northeast 212 244 3,100  Level Cleveland Center
Sat 02:23:11 AM 42.5986 -83.4011 21° North 195 224 3,100 -446 Level Cleveland Center
Sat 02:24:12 AM 42.6389 -83.3775 23° Northeast 123 142 2,200 -885 Descending Cleveland Center
Sat 02:26:00 AM 42.6500 -83.4167 North  Level FlightAware Approximate

Login

Don't have an account? Register now (free) for customized features, flight alerts, and more!